Time;durP1;ratioP1;P1;durP2;ratioP2;P2;SDS_P1;SDS_P2;PMS_P1;PMS_P2;Temp;Humidity;BMP_temperature;BMP_pressure;BME280_temperature;BME280_humidity;BME280_pressure;Samples;Min_cycle;Max_cycle;Signal;HPM_P1;HPM_P2
2022/07/15 00:00:59;;;;;;;;;;;;;;;17.73;61.06;100167.31;5028181;28;1990;-95
2022/07/15 00:03:26;;;;;;;;;;;;;;;17.72;61.01;100166.50;5037020;28;2067;-95
2022/07/15 00:05:52;;;;;;;;;;;;;;;17.69;60.94;100170.59;5028947;28;2455;-95
2022/07/15 00:08:19;;;;;;;;;;;;;;;17.68;61.04;100157.28;5036687;28;2105;-95
2022/07/15 00:10:46;;;;;;;;;;;;;;;17.67;61.15;100170.03;5034308;28;1803;-95
2022/07/15 00:13:12;;;;;;;;;;;;;;;17.67;60.93;100169.22;5035443;28;1433;-95
2022/07/15 00:15:39;;;;;;;;;;;;;;;17.66;61.12;100160.25;5035757;28;1767;-96
2022/07/15 00:18:06;;;;;;;;;;;;;;;17.64;61.17;100165.16;5036541;28;1326;-96
2022/07/15 00:20:33;;;;;;;;;;;;;;;17.62;61.05;100159.19;5035490;28;1940;-96
2022/07/15 00:23:00;;;;;;;;;;;;;;;17.61;61.35;100167.63;5034047;28;1471;-95
2022/07/15 00:25:26;;;;;;;;;;;;;;;17.59;61.01;100162.47;5036892;28;1763;-94
2022/07/15 00:27:53;;;;;;;;;;;;;;;17.59;61.21;100167.91;5035928;28;2097;-95
2022/07/15 00:30:19;;;;;;;;;;;;;;;17.58;61.05;100168.16;5033877;28;1969;-95
2022/07/15 00:32:46;;;;;;;;;;;;;;;17.56;60.96;100168.47;5021983;28;2165;-95
2022/07/15 00:35:13;;;;;;;;;;;;;;;17.56;61.21;100167.63;5026171;28;1737;-95
2022/07/15 00:37:39;;;;;;;;;;;;;;;17.54;61.21;100175.28;5054353;28;2172;-95
2022/07/15 00:40:06;;;;;;;;;;;;;;;17.52;61.10;100164.63;5035408;28;1811;-95
2022/07/15 00:42:45;;;;;;;;;;;;;;;17.51;61.15;100167.66;5042829;28;1977;-96
2022/07/15 00:45:12;;;;;;;;;;;;;;;17.49;61.05;100171.44;5050808;28;1889;-96
2022/07/15 00:47:39;;;;;;;;;;;;;;;17.48;61.18;100169.00;5056396;28;1454;-95
2022/07/15 00:50:06;;;;;;;;;;;;;;;17.47;61.29;100165.47;5043458;28;1976;-95
2022/07/15 00:52:32;;;;;;;;;;;;;;;17.46;60.95;100165.75;5035689;28;1176;-95
2022/07/15 00:54:59;;;;;;;;;;;;;;;17.44;61.21;100162.47;5027980;28;1447;-95
2022/07/15 00:57:25;;;;;;;;;;;;;;;17.43;61.13;100169.81;5039407;28;1764;-95
2022/07/15 00:59:52;;;;;;;;;;;;;;;17.40;61.01;100162.22;5040375;28;1288;-95
2022/07/15 01:02:18;;;;;;;;;;;;;;;17.39;61.05;100157.88;5033538;28;1796;-95
2022/07/15 01:04:45;;;;;;;;;;;;;;;17.38;61.16;100164.41;5026825;28;2119;-96
2022/07/15 01:07:13;;;;;;;;;;;;;;;17.36;61.05;100161.13;5022953;28;1655;-95
2022/07/15 01:09:39;;;;;;;;;;;;;;;17.35;61.22;100156.75;5036135;28;1914;-96
2022/07/15 01:12:06;;;;;;;;;;;;;;;17.36;61.28;100160.31;5055155;28;2780;-96
2022/07/15 01:14:32;;;;;;;;;;;;;;;17.34;61.26;100162.50;5039912;28;2058;-96
2022/07/15 01:16:59;;;;;;;;;;;;;;;17.31;60.97;100161.13;5037519;28;1849;-96
2022/07/15 01:19:26;;;;;;;;;;;;;;;17.31;60.98;100161.13;5025554;28;1865;-96
2022/07/15 01:21:52;;;;;;;;;;;;;;;17.28;60.97;100156.25;5044003;28;1894;-95
2022/07/15 01:24:19;;;;;;;;;;;;;;;17.27;61.15;100151.91;5042344;28;1517;-95
2022/07/15 01:26:45;;;;;;;;;;;;;;;17.26;61.16;100155.69;5032799;28;1860;-95
2022/07/15 01:29:12;;;;;;;;;;;;;;;17.25;61.03;100157.59;5039351;28;2848;-95
2022/07/15 01:31:39;;;;;;;;;;;;;;;17.21;61.07;100159.25;5034168;28;2028;-95
2022/07/15 01:34:05;;;;;;;;;;;;;;;17.21;61.13;100161.16;5039085;28;1371;-96
2022/07/15 01:36:32;;;;;;;;;;;;;;;17.20;60.96;100151.34;5029555;28;2179;-95
2022/07/15 01:38:58;;;;;;;;;;;;;;;17.18;61.02;100165.25;5037032;28;2239;-95
2022/07/15 01:41:25;;;;;;;;;;;;;;;17.16;61.11;100159.25;5033232;28;1970;-95
2022/07/15 01:43:51;;;;;;;;;;;;;;;17.14;61.06;100158.69;5053564;28;1919;-95
2022/07/15 01:46:18;;;;;;;;;;;;;;;17.12;61.01;100158.16;5049779;28;1928;-95
2022/07/15 01:51:29;;;;;;;;;;;;;;;17.10;61.17;100159.53;5062319;28;1909;-96
2022/07/15 01:53:56;;;;;;;;;;;;;;;17.09;61.03;100158.72;5054297;28;1968;-95
2022/07/15 01:56:23;;;;;;;;;;;;;;;17.06;61.04;100159.25;5055146;28;2128;-95
2022/07/15 01:58:49;;;;;;;;;;;;;;;17.04;61.20;100164.16;5058865;28;1262;-95
2022/07/15 02:01:19;;;;;;;;;;;;;;;17.02;61.27;100155.44;5048198;28;1842;-96
2022/07/15 02:03:45;;;;;;;;;;;;;;;17.02;61.14;100163.59;5057690;28;2280;-95
2022/07/15 02:06:12;;;;;;;;;;;;;;;17.01;61.05;100161.97;5056932;28;2004;-95
2022/07/15 02:08:38;;;;;;;;;;;;;;;17.00;61.05;100163.88;5058480;28;1989;-95
2022/07/15 02:11:06;;;;;;;;;;;;;;;16.98;60.93;100162.50;5057767;28;1740;-96
2022/07/15 02:13:32;;;;;;;;;;;;;;;16.96;61.04;100160.06;5058376;28;2321;-95
2022/07/15 02:15:59;;;;;;;;;;;;;;;16.95;60.99;100158.44;5043505;28;1875;-96
2022/07/15 02:18:25;;;;;;;;;;;;;;;16.95;61.17;100160.34;5058148;28;1235;-95
2022/07/15 02:20:52;;;;;;;;;;;;;;;16.92;61.14;100158.97;5058180;28;1337;-95
2022/07/15 02:23:19;;;;;;;;;;;;;;;16.91;60.98;100164.66;5058473;28;1200;-96
2022/07/15 02:25:46;;;;;;;;;;;;;;;16.90;61.04;100168.47;5057345;28;1689;-96
2022/07/15 02:28:13;;;;;;;;;;;;;;;16.89;61.06;100172.31;5057033;28;1712;-95
2022/07/15 02:30:40;;;;;;;;;;;;;;;16.88;60.86;100167.94;5052517;28;1917;-95
2022/07/15 02:33:06;;;;;;;;;;;;;;;16.86;60.78;100173.66;5054881;28;1526;-95
2022/07/15 02:35:33;;;;;;;;;;;;;;;16.86;61.04;100170.13;5049296;28;1838;-96
2022/07/15 02:38:00;;;;;;;;;;;;;;;16.84;60.90;100169.56;5038918;28;1905;-96
2022/07/15 02:40:26;;;;;;;;;;;;;;;16.81;61.01;100165.50;5054721;28;1331;-95
2022/07/15 02:42:53;;;;;;;;;;;;;;;16.80;60.94;100163.88;5067660;28;1911;-95
2022/07/15 02:45:20;;;;;;;;;;;;;;;16.79;61.02;100168.50;5052998;28;2012;-96
2022/07/15 02:47:46;;;;;;;;;;;;;;;16.76;60.94;100166.28;5054908;28;1379;-96
2022/07/15 02:50:13;;;;;;;;;;;;;;;16.76;60.87;100166.28;5040086;28;2014;-95
2022/07/15 02:52:40;;;;;;;;;;;;;;;16.74;60.90;100164.91;5051312;28;1547;-95
2022/07/15 02:55:06;;;;;;;;;;;;;;;16.74;60.84;100167.63;5054302;28;1210;-96
2022/07/15 02:57:36;;;;;;;;;;;;;;;16.72;60.67;100167.06;5051626;28;1190;-95
2022/07/15 03:00:02;;;;;;;;;;;;;;;16.71;60.89;100171.69;5052614;28;1868;-95
2022/07/15 03:02:29;;;;;;;;;;;;;;;16.69;60.86;100181.22;5053067;28;1505;-96
2022/07/15 03:04:56;;;;;;;;;;;;;;;16.69;60.86;100170.34;5052267;28;1465;-95
2022/07/15 03:07:23;;;;;;;;;;;;;;;16.68;60.69;100177.69;5052903;28;1244;-95
2022/07/15 03:09:49;;;;;;;;;;;;;;;16.65;60.75;100180.94;5040433;28;1919;-96
2022/07/15 03:12:16;;;;;;;;;;;;;;;16.64;60.74;100173.03;5052620;28;2079;-95
2022/07/15 03:14:42;;;;;;;;;;;;;;;16.64;60.65;100186.63;5050302;28;1812;-95
2022/07/15 03:17:09;;;;;;;;;;;;;;;16.62;60.78;100180.63;5052669;28;1363;-95
2022/07/15 03:19:36;;;;;;;;;;;;;;;16.61;60.67;100170.84;5048614;28;1711;-95
2022/07/15 03:22:02;;;;;;;;;;;;;;;16.58;60.78;100166.78;5052325;28;1728;-95
2022/07/15 03:24:29;;;;;;;;;;;;;;;16.58;60.77;100174.94;5051287;28;2312;-95
2022/07/15 03:26:55;;;;;;;;;;;;;;;16.56;60.83;100171.69;5052794;28;1367;-96
2022/07/15 03:29:22;;;;;;;;;;;;;;;16.55;60.72;100175.47;5052823;28;1973;-95
2022/07/15 03:31:48;;;;;;;;;;;;;;;16.54;60.67;100179.28;5049869;28;2082;-95
2022/07/15 03:34:15;;;;;;;;;;;;;;;16.52;60.66;100184.97;5052045;28;1469;-95
2022/07/15 03:36:41;;;;;;;;;;;;;;;16.50;60.65;100183.59;5051618;28;1327;-96
2022/07/15 03:39:08;;;;;;;;;;;;;;;16.50;60.64;100183.59;5052575;28;1765;-95
2022/07/15 03:41:34;;;;;;;;;;;;;;;16.47;60.60;100182.25;5055821;28;3385;-95
2022/07/15 03:44:01;;;;;;;;;;;;;;;16.48;60.62;100196.66;5053794;28;1250;-95
2022/07/15 03:46:27;;;;;;;;;;;;;;;16.47;60.58;100197.72;5055287;28;2478;-95
2022/07/15 03:48:54;;;;;;;;;;;;;;;16.45;60.59;100195.28;5053164;28;1743;-96
2022/07/15 03:51:21;;;;;;;;;;;;;;;16.45;60.54;100199.91;5054723;28;1909;-95
2022/07/15 03:53:47;;;;;;;;;;;;;;;16.42;60.52;100198.53;5055897;28;1492;-95
2022/07/15 03:56:14;;;;;;;;;;;;;;;16.42;60.59;100203.16;5055788;28;1416;-95
2022/07/15 03:58:41;;;;;;;;;;;;;;;16.40;60.60;100202.59;5047390;28;2535;-95
2022/07/15 04:01:07;;;;;;;;;;;;;;;16.41;60.60;100198.78;5053310;28;1788;-95
2022/07/15 04:03:34;;;;;;;;;;;;;;;16.41;60.48;100210.47;5048718;28;1713;-95
2022/07/15 04:06:01;;;;;;;;;;;;;;;16.39;60.50;100209.94;5051842;28;1457;-95
2022/07/15 04:08:27;;;;;;;;;;;;;;;16.38;60.43;100218.34;5042079;28;1451;-95
2022/07/15 04:10:54;;;;;;;;;;;;;;;16.37;60.41;100216.72;5051180;28;1957;-96
2022/07/15 04:13:20;;;;;;;;;;;;;;;16.35;60.39;100219.69;5050662;28;1285;-95
2022/07/15 04:15:47;;;;;;;;;;;;;;;16.34;60.50;100228.94;5057715;28;1920;-95
2022/07/15 04:18:14;;;;;;;;;;;;;;;16.32;60.42;100229.22;5077370;28;1594;-95
2022/07/15 04:20:40;;;;;;;;;;;;;;;16.31;60.47;100226.75;5044321;28;2326;-95
2022/07/15 04:23:07;;;;;;;;;;;;;;;16.31;60.39;100226.75;5050630;28;1770;-95
2022/07/15 04:25:33;;;;;;;;;;;;;;;16.29;60.32;100232.44;5048741;28;1550;-96
2022/07/15 04:28:00;;;;;;;;;;;;;;;16.29;60.58;100231.63;5057850;28;1433;-95
2022/07/15 04:30:26;;;;;;;;;;;;;;;16.28;60.25;100221.84;5056777;28;1968;-95
2022/07/15 04:32:53;;;;;;;;;;;;;;;16.27;60.38;100231.91;5057239;28;1291;-95
2022/07/15 04:35:20;;;;;;;;;;;;;;;16.26;60.37;100222.09;5050282;28;2232;-95
2022/07/15 04:37:46;;;;;;;;;;;;;;;16.26;60.33;100232.97;5053451;28;2346;-96
2022/07/15 04:40:13;;;;;;;;;;;;;;;16.26;60.30;100238.41;5055511;28;1805;-95
2022/07/15 04:42:39;;;;;;;;;;;;;;;16.23;60.30;100238.94;5049448;28;1465;-95
2022/07/15 04:45:06;;;;;;;;;;;;;;;16.23;60.25;100233.50;5053747;28;1642;-95
2022/07/15 04:47:32;;;;;;;;;;;;;;;16.21;60.22;100238.41;5058497;28;2219;-95
2022/07/15 04:52:43;;;;;;;;;;;;;;;16.20;60.21;100239.47;5059158;28;1405;-95
2022/07/15 04:55:10;;;;;;;;;;;;;;;16.20;60.09;100238.66;5049232;28;1362;-96
2022/07/15 04:57:37;;;;;;;;;;;;;;;16.20;60.16;100230.50;5054038;28;1489;-95
2022/07/15 05:00:03;;;;;;;;;;;;;;;16.17;60.12;100240.00;5041180;28;1692;-95
2022/07/15 05:02:30;;;;;;;;;;;;;;;16.17;60.07;100234.56;5059619;28;1191;-94
2022/07/15 05:04:56;;;;;;;;;;;;;;;16.16;60.03;100229.41;5057005;28;4227;-95
2022/07/15 05:07:23;;;;;;;;;;;;;;;16.15;60.11;100235.91;5053830;28;2256;-95
2022/07/15 05:09:49;;;;;;;;;;;;;;;16.13;60.12;100242.44;5056732;28;1978;-95
2022/07/15 05:12:16;;;;;;;;;;;;;;;16.12;60.15;100232.66;5056675;28;2099;-95
2022/07/15 05:14:43;;;;;;;;;;;;;;;16.12;60.10;100231.84;5047970;28;1725;-95
2022/07/15 05:17:09;;;;;;;;;;;;;;;16.12;59.98;100238.09;5053448;28;1794;-95
2022/07/15 05:19:36;;;;;;;;;;;;;;;16.10;59.95;100234.81;5047437;28;1690;-95
2022/07/15 05:22:02;;;;;;;;;;;;;;;16.11;60.04;100238.34;5056855;28;1745;-94
2022/07/15 05:24:29;;;;;;;;;;;;;;;16.11;60.01;100246.50;5048254;28;1453;-96
2022/07/15 05:26:55;;;;;;;;;;;;;;;16.10;59.88;100242.16;5048548;28;1776;-95
2022/07/15 05:29:22;;;;;;;;;;;;;;;16.09;59.90;100246.78;5050191;28;4763;-96
2022/07/15 05:31:49;;;;;;;;;;;;;;;16.07;59.98;100248.94;5058156;28;1983;-95
2022/07/15 05:34:16;;;;;;;;;;;;;;;16.07;59.90;100248.13;5057293;28;1896;-96
2022/07/15 05:36:51;;;;;;;;;;;;;;;16.06;59.89;100249.16;5085610;28;1393;-96
2022/07/15 05:42:03;;;;;;;;;;;;;;;16.07;59.88;100248.13;5076633;28;1414;-96
2022/07/15 05:44:33;;;;;;;;;;;;;;;16.06;59.84;100250.03;5079025;28;1370;-96
2022/07/15 05:47:04;;;;;;;;;;;;;;;16.04;59.77;100252.16;5089322;28;1574;-96
2022/07/15 05:49:31;;;;;;;;;;;;;;;16.03;59.81;100247.84;5058932;28;1585;-96
2022/07/15 05:51:58;;;;;;;;;;;;;;;16.04;59.73;100244.03;5054594;28;1501;-95
2022/07/15 05:54:26;;;;;;;;;;;;;;;16.01;59.83;100244.56;5072259;28;1413;-96
2022/07/15 05:56:54;;;;;;;;;;;;;;;16.02;59.86;100251.59;5066962;28;1623;-96
2022/07/15 05:59:20;;;;;;;;;;;;;;;16.03;59.63;100249.69;5055015;28;1309;-96
2022/07/15 06:01:49;;;;;;;;;;;;;;;16.03;59.72;100250.53;5059997;28;1851;-96
2022/07/15 06:04:15;;;;;;;;;;;;;;;16.01;59.69;100251.88;5066307;28;1516;-96
2022/07/15 06:06:42;;;;;;;;;;;;;;;16.01;59.71;100246.44;5052462;28;1298;-96
2022/07/15 06:09:12;;;;;;;;;;;;;;;16.02;59.66;100248.88;5051822;28;1501;-96
2022/07/15 06:11:44;;;;;;;;;;;;;;;16.01;59.71;100247.25;5069236;28;1958;-96
2022/07/15 06:19:51;;;;;;;;;;;;;;;16.00;59.60;100247.50;5075765;28;1269;-96
2022/07/15 06:22:20;;;;;;;;;;;;;;;16.01;59.59;100251.88;5077064;28;1561;-96
2022/07/15 06:39:53;;;;;;;;;;;;;;;15.95;59.51;100247.50;4996845;28;1812;-96
2022/07/15 06:42:44;;;;;;;;;;;;;;;15.97;59.47;100248.88;5029952;28;1979;-94
2022/07/15 06:45:12;;;;;;;;;;;;;;;15.97;59.52;100242.59;5011093;28;2009;-94
2022/07/15 06:47:39;;;;;;;;;;;;;;;15.96;59.38;100249.94;5012360;28;2161;-95
2022/07/15 06:50:05;;;;;;;;;;;;;;;15.96;59.49;100254.56;5014702;28;1980;-94
2022/07/15 06:52:32;;;;;;;;;;;;;;;15.95;59.45;100258.38;5014929;28;1426;-95
2022/07/15 06:54:58;;;;;;;;;;;;;;;15.96;59.51;100254.56;5012872;28;1573;-94
2022/07/15 06:57:28;;;;;;;;;;;;;;;15.96;59.53;100260.00;5016201;28;1610;-94
2022/07/15 06:59:54;;;;;;;;;;;;;;;15.95;59.36;100253.75;5016955;28;1280;-94
2022/07/15 07:02:21;;;;;;;;;;;;;;;15.95;59.24;100258.38;5003422;28;1414;-94
2022/07/15 07:04:48;;;;;;;;;;;;;;;15.96;59.26;100255.38;5017273;28;1291;-95
2022/07/15 07:07:14;;;;;;;;;;;;;;;15.95;59.28;100261.09;5004750;28;1215;-95
2022/07/15 07:09:41;;;;;;;;;;;;;;;15.95;59.21;100261.09;5016397;28;1154;-94
2022/07/15 07:12:08;;;;;;;;;;;;;;;15.95;59.04;100256.47;5017282;28;1997;-95
2022/07/15 07:14:34;;;;;;;;;;;;;;;15.94;59.30;100254.00;5035534;28;1172;-95
2022/07/15 07:17:01;;;;;;;;;;;;;;;15.94;59.25;100254.81;5057386;28;1518;-95
2022/07/15 07:19:28;;;;;;;;;;;;;;;15.94;59.19;100260.25;5053325;28;1252;-95
2022/07/15 07:21:54;;;;;;;;;;;;;;;15.95;59.12;100261.09;5054343;28;1279;-95
2022/07/15 07:24:21;;;;;;;;;;;;;;;15.95;59.15;100261.91;5054116;28;1329;-94
2022/07/15 07:26:48;;;;;;;;;;;;;;;15.94;59.14;100262.97;5055131;28;1292;-95
2022/07/15 07:29:17;;;;;;;;;;;;;;;15.95;59.18;100259.19;5057174;28;1152;-95
2022/07/15 07:31:43;;;;;;;;;;;;;;;15.94;59.04;100264.84;5043152;28;1985;-95
2022/07/15 07:34:09;;;;;;;;;;;;;;;15.95;59.11;100269.22;5057277;28;1151;-95
2022/07/15 07:36:36;;;;;;;;;;;;;;;15.94;59.16;100265.69;5065540;28;2306;-95
2022/07/15 07:39:03;;;;;;;;;;;;;;;15.94;58.95;100256.72;5039574;28;1968;-94
2022/07/15 07:41:29;;;;;;;;;;;;;;;15.95;59.15;100261.09;5039734;28;1895;-95
2022/07/15 07:43:56;;;;;;;;;;;;;;;15.92;59.14;100256.19;5056473;28;1196;-95
2022/07/15 07:46:22;;;;;;;;;;;;;;;15.92;58.95;100261.59;5058144;28;1371;-95
2022/07/15 07:48:49;;;;;;;;;;;;;;;15.90;58.97;100253.72;5045075;28;1390;-95
2022/07/15 07:51:15;;;;;;;;;;;;;;;15.92;59.04;100254.28;5057439;28;1910;-94
2022/07/15 07:53:42;;;;;;;;;;;;;;;15.91;59.23;100249.91;5053084;28;1862;-95
2022/07/15 07:56:08;;;;;;;;;;;;;;;15.94;58.93;100254.00;5055646;28;1354;-94
2022/07/15 07:58:35;;;;;;;;;;;;;;;15.91;59.00;100247.19;5056932;28;1748;-95
2022/07/15 08:01:01;;;;;;;;;;;;;;;15.90;59.02;100243.66;5057976;28;1280;-96
2022/07/15 08:03:29;;;;;;;;;;;;;;;15.89;59.04;100238.50;5057758;28;1226;-95
2022/07/15 08:05:55;;;;;;;;;;;;;;;15.89;58.98;100250.19;5053650;28;2588;-94
2022/07/15 08:08:22;;;;;;;;;;;;;;;15.89;59.05;100242.03;5043106;28;1967;-95
2022/07/15 08:10:49;;;;;;;;;;;;;;;15.90;59.00;100243.66;5046429;28;1910;-95
2022/07/15 08:13:15;;;;;;;;;;;;;;;15.89;59.11;100243.94;5055285;28;1247;-95
2022/07/15 08:15:42;;;;;;;;;;;;;;;15.89;59.05;100241.22;5057289;28;1277;-95
2022/07/15 08:18:08;;;;;;;;;;;;;;;15.90;59.10;100245.56;5057349;28;1347;-95
2022/07/15 08:20:35;;;;;;;;;;;;;;;15.90;59.07;100245.56;5057311;28;1191;-95
2022/07/15 08:23:02;;;;;;;;;;;;;;;15.90;59.02;100245.56;5046435;28;1269;-95
2022/07/15 08:25:28;;;;;;;;;;;;;;;15.89;59.02;100246.66;5057263;28;1317;-95
2022/07/15 08:27:55;;;;;;;;;;;;;;;15.90;58.79;100240.94;5053366;28;1422;-95
2022/07/15 08:30:21;;;;;;;;;;;;;;;15.90;59.02;100235.50;5060069;28;1908;-95
2022/07/15 08:32:48;;;;;;;;;;;;;;;15.90;59.05;100229.28;5043767;28;1358;-96
2022/07/15 08:35:15;;;;;;;;;;;;;;;15.90;58.99;100227.38;5054132;28;1251;-96
2022/07/15 08:37:41;;;;;;;;;;;;;;;15.91;59.01;100233.63;5039731;28;1211;-95
2022/07/15 08:40:10;;;;;;;;;;;;;;;15.92;59.03;100237.97;5061594;28;1216;-96
2022/07/15 08:42:39;;;;;;;;;;;;;;;15.93;58.95;100233.38;5068631;28;1409;-96
2022/07/15 08:45:05;;;;;;;;;;;;;;;15.93;59.03;100227.94;5064214;28;1301;-96
2022/07/15 08:47:32;;;;;;;;;;;;;;;15.92;59.09;100224.41;5061903;28;1331;-96
2022/07/15 08:49:58;;;;;;;;;;;;;;;15.91;58.94;100222.75;5062816;28;1353;-95
2022/07/15 08:52:25;;;;;;;;;;;;;;;15.92;58.99;100220.88;5044127;28;1906;-95
2022/07/15 08:54:51;;;;;;;;;;;;;;;15.92;58.83;100216.25;5039809;28;1252;-95
2022/07/15 08:57:18;;;;;;;;;;;;;;;15.92;59.06;100221.69;5035583;28;1278;-96
2022/07/15 08:59:45;;;;;;;;;;;;;;;15.93;58.97;100217.06;5044195;28;1148;-96
2022/07/15 09:02:13;;;;;;;;;;;;;;;15.95;59.05;100225.78;5037937;28;1256;-96
2022/07/15 09:04:39;;;;;;;;;;;;;;;15.95;59.06;100223.06;5038122;28;1276;-96
2022/07/15 09:07:06;;;;;;;;;;;;;;;15.94;58.99;100222.22;5041323;28;1220;-96
2022/07/15 09:09:33;;;;;;;;;;;;;;;15.93;59.15;100219.78;5039923;28;1328;-96
2022/07/15 09:12:00;;;;;;;;;;;;;;;15.94;59.16;100208.63;5039490;28;1961;-96
2022/07/15 09:14:28;;;;;;;;;;;;;;;15.96;59.16;100202.97;5039792;28;1326;-96
2022/07/15 09:16:54;;;;;;;;;;;;;;;15.96;59.14;100205.69;5058019;28;1211;-96
2022/07/15 09:19:21;;;;;;;;;;;;;;;15.96;59.15;100198.34;5059515;28;1449;-96
2022/07/15 09:21:49;;;;;;;;;;;;;;;15.97;58.96;100200.00;5048239;28;1663;-96
2022/07/15 09:24:16;;;;;;;;;;;;;;;15.98;59.25;100193.47;5039422;28;1341;-96
2022/07/15 09:26:43;;;;;;;;;;;;;;;15.98;59.22;100201.63;5039462;28;1387;-96
2022/07/15 09:34:42;;;;;;;;;;;;;;;16.00;59.19;100195.91;5009029;28;1157;-96
2022/07/15 09:37:09;;;;;;;;;;;;;;;15.99;59.06;100186.94;5040043;28;1505;-96
2022/07/15 09:39:36;;;;;;;;;;;;;;;16.00;59.23;100188.59;5056780;28;1318;-96
2022/07/15 09:42:02;;;;;;;;;;;;;;;16.02;59.16;100191.84;5059140;28;1223;-96
2022/07/15 09:44:29;;;;;;;;;;;;;;;16.03;59.11;100189.94;5040343;28;1305;-96
2022/07/15 09:46:57;;;;;;;;;;;;;;;16.03;59.38;100184.50;5039494;28;1382;-96
2022/07/15 09:49:23;;;;;;;;;;;;;;;16.04;59.21;100180.75;5022754;28;1231;-96
2022/07/15 09:51:50;;;;;;;;;;;;;;;16.03;59.03;100179.09;5035879;28;1910;-96
2022/07/15 09:54:16;;;;;;;;;;;;;;;16.02;58.83;100180.16;5019406;28;1424;-96
2022/07/15 09:56:43;;;;;;;;;;;;;;;16.04;59.08;100180.75;5037062;28;1385;-96
2022/07/15 09:59:12;;;;;;;;;;;;;;;16.07;59.24;100177.50;5035753;28;1472;-96
2022/07/15 10:01:39;;;;;;;;;;;;;;;16.08;59.28;100171.78;5040023;28;1483;-96
2022/07/15 10:04:06;;;;;;;;;;;;;;;16.07;59.31;100167.44;5028002;28;1874;-96
2022/07/15 10:06:32;;;;;;;;;;;;;;;16.10;59.30;100174.25;5038088;28;5142;-96
2022/07/15 10:08:59;;;;;;;;;;;;;;;16.09;59.25;100168.00;5039149;28;1338;-96
2022/07/15 10:11:25;;;;;;;;;;;;;;;16.11;59.41;100167.72;5044703;28;1906;-96
2022/07/15 10:13:52;;;;;;;;;;;;;;;16.11;59.48;100168.53;5035764;28;1861;-96
2022/07/15 10:16:19;;;;;;;;;;;;;;;16.12;59.37;100159.31;5055401;28;1254;-96
2022/07/15 10:18:45;;;;;;;;;;;;;;;16.12;59.27;100162.03;5058670;28;1277;-96
2022/07/15 10:21:12;;;;;;;;;;;;;;;16.12;59.17;100156.59;5041948;28;1958;-96
2022/07/15 10:23:39;;;;;;;;;;;;;;;16.15;59.36;100154.41;5038491;28;1230;-96
2022/07/15 10:26:06;;;;;;;;;;;;;;;16.15;59.36;100149.81;5038591;28;1383;-96
2022/07/15 10:28:32;;;;;;;;;;;;;;;16.16;59.29;100148.72;5057550;28;1223;-96
2022/07/15 10:30:59;;;;;;;;;;;;;;;16.18;59.40;100148.44;5042671;28;1977;-96
2022/07/15 10:33:30;;;;;;;;;;;;;;;16.19;59.50;100145.47;5038973;28;1489;-96
2022/07/15 10:35:56;;;;;;;;;;;;;;;16.22;59.58;100141.41;5030582;28;2909;-96
2022/07/15 10:38:23;;;;;;;;;;;;;;;16.22;59.61;100134.06;5029873;28;1639;-96
2022/07/15 10:40:50;;;;;;;;;;;;;;;16.22;59.68;100136.78;5031671;28;2040;-96
2022/07/15 10:43:17;;;;;;;;;;;;;;;16.23;59.61;100134.88;5057328;28;1535;-96
2022/07/15 10:45:43;;;;;;;;;;;;;;;16.23;59.64;100132.97;5038694;28;1837;-95
2022/07/15 10:48:10;;;;;;;;;;;;;;;16.24;59.59;100133.81;5071281;28;1257;-95
2022/07/15 10:50:36;;;;;;;;;;;;;;;16.24;59.81;100131.09;5071628;28;1558;-96
2022/07/15 10:53:03;;;;;;;;;;;;;;;16.24;59.62;100122.94;5057877;28;1894;-96
2022/07/15 10:55:30;;;;;;;;;;;;;;;16.26;59.63;100128.91;5057224;28;1916;-96
2022/07/15 10:57:56;;;;;;;;;;;;;;;16.26;59.75;100129.72;5046489;28;1332;-96
2022/07/15 11:00:23;;;;;;;;;;;;;;;16.27;59.70;100127.84;5049917;28;1283;-96
2022/07/15 11:02:50;;;;;;;;;;;;;;;16.27;59.65;100120.50;5046268;28;1391;-96
2022/07/15 11:05:17;;;;;;;;;;;;;;;16.29;59.76;100122.94;5056339;28;1398;-96
2022/07/15 11:07:44;;;;;;;;;;;;;;;16.29;59.61;100118.31;5057331;28;1280;-96
2022/07/15 11:10:11;;;;;;;;;;;;;;;16.31;59.90;100113.44;5051822;28;2161;-95
2022/07/15 11:12:37;;;;;;;;;;;;;;;16.31;59.96;100121.59;5044920;28;2532;-96
2022/07/15 11:15:04;;;;;;;;;;;;;;;16.33;59.99;100111.28;5048335;28;1743;-96
2022/07/15 11:17:30;;;;;;;;;;;;;;;16.35;60.07;100111.84;5049143;28;1931;-96
2022/07/15 11:19:57;;;;;;;;;;;;;;;16.36;60.05;100109.94;5050924;28;1776;-96
2022/07/15 11:22:24;;;;;;;;;;;;;;;16.38;60.14;100115.91;5049863;28;1678;-96
2022/07/15 11:24:52;;;;;;;;;;;;;;;16.36;59.90;100101.78;5047931;28;1976;-96
2022/07/15 11:27:18;;;;;;;;;;;;;;;16.38;59.94;100104.22;5051718;28;1786;-96
2022/07/15 11:29:45;;;;;;;;;;;;;;;16.40;60.23;100104.78;5050214;28;1587;-96
2022/07/15 11:32:12;;;;;;;;;;;;;;;16.40;60.15;100104.78;5049725;28;1956;-96
2022/07/15 11:34:38;;;;;;;;;;;;;;;16.41;60.22;100106.38;5047207;28;1725;-96
2022/07/15 11:37:05;;;;;;;;;;;;;;;16.42;60.38;100108.03;5048429;28;1853;-96
2022/07/15 11:39:32;;;;;;;;;;;;;;;16.41;60.26;100109.09;5049070;28;1627;-96
2022/07/15 11:44:43;;;;;;;;;;;;;;;16.41;59.41;100096.34;5045276;28;1351;-96
2022/07/15 11:47:10;;;;;;;;;;;;;;;16.40;59.39;100093.91;5052050;28;1248;-96
2022/07/15 11:49:38;;;;;;;;;;;;;;;16.39;58.96;100101.25;5047881;28;1489;-96
2022/07/15 11:52:05;;;;;;;;;;;;;;;16.41;59.09;100098.25;5048885;28;1971;-96
2022/07/15 11:54:31;;;;;;;;;;;;;;;16.43;59.09;100096.88;5068652;28;1350;-96
2022/07/15 11:56:58;;;;;;;;;;;;;;;16.41;58.86;100093.63;5053105;28;1502;-96
2022/07/15 11:59:24;;;;;;;;;;;;;;;16.43;58.59;100091.47;5058045;28;1315;-96
2022/07/15 12:01:51;;;;;;;;;;;;;;;16.46;58.94;100081.94;5058059;28;1841;-96
2022/07/15 12:04:18;;;;;;;;;;;;;;;16.45;58.51;100089.28;5053061;28;1448;-96
2022/07/15 12:06:44;;;;;;;;;;;;;;;16.47;58.80;100083.56;5052618;28;1707;-96
2022/07/15 12:09:11;;;;;;;;;;;;;;;16.45;58.44;100083.84;5056499;28;1378;-96
2022/07/15 12:11:38;;;;;;;;;;;;;;;16.47;58.75;100089.00;5058096;28;1910;-95
2022/07/15 12:14:04;;;;;;;;;;;;;;;16.50;59.03;100086.59;5069696;28;1249;-96
2022/07/15 12:16:31;;;;;;;;;;;;;;;16.54;59.51;100089.56;5056309;28;1816;-96
2022/07/15 12:18:58;;;;;;;;;;;;;;;16.56;59.81;100076.53;5056970;28;2296;-96
2022/07/15 12:21:24;;;;;;;;;;;;;;;16.55;59.44;100072.16;5054927;28;1210;-96
2022/07/15 12:23:51;;;;;;;;;;;;;;;16.59;59.58;100073.28;5050764;28;1375;-96
2022/07/15 12:26:17;;;;;;;;;;;;;;;16.63;60.20;100074.34;5053057;28;1458;-96
2022/07/15 12:28:44;;;;;;;;;;;;;;;16.66;60.01;100075.72;5053185;28;1704;-96
2022/07/15 12:31:10;;;;;;;;;;;;;;;16.65;60.38;100074.06;5047051;28;1393;-96
2022/07/15 12:33:37;;;;;;;;;;;;;;;16.61;59.92;100073.81;5068736;28;1995;-96
2022/07/15 12:36:03;;;;;;;;;;;;;;;16.65;60.18;100063.19;5066770;28;1728;-96
2022/07/15 12:38:31;;;;;;;;;;;;;;;16.64;60.04;100075.97;5049723;28;1907;-96
2022/07/15 12:41:04;;;;;;;;;;;;;;;16.65;60.05;100066.75;5063289;28;1187;-96
2022/07/15 12:55:41;;;;;;;;;;;;;;;16.66;59.29;100067.56;5152968;27;1312;-96
2022/07/15 12:58:20;;;;;;;;;;;;;;;16.68;59.12;100079.00;5132031;27;1231;-96
2022/07/15 13:01:07;;;;;;;;;;;;;;;16.77;59.83;100067.31;5133581;27;1288;-96
2022/07/15 13:03:34;;;;;;;;;;;;;;;16.80;60.27;100074.13;5128327;27;1242;-96
2022/07/15 13:06:01;;;;;;;;;;;;;;;16.82;60.45;100066.50;5162992;22;2703;-96
2022/07/15 13:08:28;;;;;;;;;;;;;;;16.85;60.59;100070.56;5086557;28;2466;-96
2022/07/15 13:10:54;;;;;;;;;;;;;;;16.86;60.70;100072.22;5102353;28;1454;-96
2022/07/15 13:13:26;;;;;;;;;;;;;;;16.90;60.66;100073.28;5084067;28;1970;-96
2022/07/15 13:15:55;;;;;;;;;;;;;;;16.91;60.66;100064.88;5062718;28;1709;-95
2022/07/15 13:18:24;;;;;;;;;;;;;;;16.91;60.82;100073.03;5066425;28;1335;-95
2022/07/15 13:20:51;;;;;;;;;;;;;;;16.92;60.89;100071.94;5076980;28;1466;-96
2022/07/15 13:23:18;;;;;;;;;;;;;;;16.92;60.95;100069.22;5073400;28;2072;-96
2022/07/15 13:25:47;;;;;;;;;;;;;;;16.95;60.95;100068.66;5061811;28;1289;-95
2022/07/15 13:28:14;;;;;;;;;;;;;;;16.98;60.84;100056.44;5075781;28;1873;-96
2022/07/15 13:30:40;;;;;;;;;;;;;;;17.00;60.91;100062.38;5077885;28;1783;-96
2022/07/15 13:33:07;;;;;;;;;;;;;;;17.02;60.75;100052.88;5083073;28;2231;-96
2022/07/15 13:35:40;;;;;;;;;;;;;;;17.01;61.02;100053.97;5089773;28;1283;-96